Time;durP1;ratioP1;P1;durP2;ratioP2;P2;SDS_P1;SDS_P2;PMS_P1;PMS_P2;Temp;Humidity;BMP_temperature;BMP_pressure;BME280_temperature;BME280_humidity;BME280_pressure;Samples;Min_cycle;Max_cycle;Signal;HPM_P1;HPM_P2
2023/08/13 00:00:07;;;;;;;7.88;2.47;;;16.10;99.90;;;;;;5048136;28;20467;-56
2023/08/13 00:02:33;;;;;;;9.63;2.72;;;16.00;99.90;;;;;;5048175;28;20084;-55
2023/08/13 00:04:59;;;;;;;11.35;2.63;;;16.10;99.90;;;;;;5053329;28;20420;-55
2023/08/13 00:07:24;;;;;;;12.30;2.80;;;16.10;99.90;;;;;;5068553;28;20372;-55
2023/08/13 00:09:50;;;;;;;9.60;2.85;;;16.20;99.90;;;;;;5068503;28;20471;-57
2023/08/13 00:12:16;;;;;;;10.63;2.95;;;16.20;99.90;;;;;;5067949;28;20044;-56
2023/08/13 00:14:41;;;;;;;11.35;2.70;;;16.20;99.90;;;;;;5067854;28;20475;-55
2023/08/13 00:17:08;;;;;;;9.98;2.83;;;16.20;99.90;;;;;;5068120;28;20047;-57
2023/08/13 00:19:33;;;;;;;11.02;2.78;;;16.20;99.90;;;;;;5068037;28;20048;-56
2023/08/13 00:21:59;;;;;;;10.63;3.00;;;16.20;99.90;;;;;;5066709;28;20549;-55
2023/08/13 00:24:24;;;;;;;11.00;3.20;;;16.30;99.90;;;;;;5068424;28;20177;-57
2023/08/13 00:26:50;;;;;;;13.73;3.70;;;16.30;99.90;;;;;;5067655;28;20083;-57
2023/08/13 00:29:16;;;;;;;9.75;2.95;;;16.20;99.90;;;;;;5067994;28;20044;-55
2023/08/13 00:31:41;;;;;;;7.90;2.88;;;16.20;99.90;;;;;;5067103;28;20045;-55
2023/08/13 00:34:07;;;;;;;8.35;2.85;;;16.20;99.90;;;;;;5067149;28;20051;-56
2023/08/13 00:36:32;;;;;;;11.63;3.22;;;16.10;99.90;;;;;;5067239;28;20076;-56
2023/08/13 00:38:58;;;;;;;9.48;3.08;;;16.10;99.90;;;;;;5067283;28;20102;-56
2023/08/13 00:41:24;;;;;;;10.40;3.15;;;16.10;99.90;;;;;;5068069;28;20044;-56
2023/08/13 00:43:49;;;;;;;10.23;3.45;;;16.10;99.90;;;;;;5065995;28;20044;-55
2023/08/13 00:46:15;;;;;;;12.15;3.63;;;16.00;99.90;;;;;;5067335;28;20403;-56
2023/08/13 00:48:41;;;;;;;10.55;3.35;;;16.00;99.90;;;;;;5065619;28;20500;-56
2023/08/13 00:51:09;;;;;;;13.35;3.60;;;16.00;99.90;;;;;;5066920;28;20412;-56
2023/08/13 00:53:43;;;;;;;11.73;3.45;;;16.00;99.90;;;;;;5067517;28;20040;-56
2023/08/13 00:56:08;;;;;;;10.45;3.53;;;15.90;99.90;;;;;;5055043;28;20033;-56
2023/08/13 00:58:34;;;;;;;12.32;3.33;;;15.90;99.90;;;;;;5054467;28;20102;-55
2023/08/13 01:01:00;;;;;;;9.05;3.38;;;15.90;99.90;;;;;;5046842;28;20071;-55
2023/08/13 01:03:26;;;;;;;13.23;3.95;;;15.90;99.90;;;;;;5046963;28;20049;-56
2023/08/13 01:05:56;;;;;;;10.82;3.47;;;15.90;99.90;;;;;;5046778;28;20091;-56
2023/08/13 01:08:39;;;;;;;14.18;3.55;;;15.90;99.90;;;;;;5046877;28;20044;-56
2023/08/13 01:11:47;;;;;;;14.38;3.70;;;15.90;99.90;;;;;;5047500;28;20057;-56
2023/08/13 01:14:44;;;;;;;14.05;3.30;;;15.90;99.90;;;;;;5049713;28;20087;-56
2023/08/13 01:17:12;;;;;;;12.20;3.33;;;15.80;99.90;;;;;;5065385;28;20446;-54
2023/08/13 01:19:37;;;;;;;10.95;3.53;;;15.90;99.90;;;;;;5065797;28;20049;-55
2023/08/13 01:22:03;;;;;;;11.93;3.60;;;15.90;99.90;;;;;;5054757;28;20391;-56
2023/08/13 01:24:29;;;;;;;10.88;3.47;;;15.90;99.90;;;;;;5067069;28;20120;-57
2023/08/13 01:27:32;;;;;;;12.95;3.65;;;15.80;99.90;;;;;;5067003;28;20506;-56
2023/08/13 01:30:13;;;;;;;14.85;3.70;;;15.90;99.90;;;;;;5066467;28;20040;-56
2023/08/13 01:32:46;;;;;;;10.07;2.90;;;15.90;99.90;;;;;;5066459;28;20380;-56
2023/08/13 01:35:13;;;;;;;11.57;3.53;;;15.90;99.90;;;;;;5045482;28;20051;-56
2023/08/13 01:37:39;;;;;;;10.23;3.50;;;15.90;99.90;;;;;;5046605;28;20098;-56
2023/08/13 01:40:06;;;;;;;10.40;3.25;;;16.00;99.90;;;;;;5046567;28;20492;-56
2023/08/13 01:42:34;;;;;;;12.50;2.95;;;15.90;99.90;;;;;;5046521;28;20067;-55
2023/08/13 01:45:00;;;;;;;12.18;3.25;;;15.90;99.90;;;;;;5045727;28;20060;-56
2023/08/13 01:47:25;;;;;;;11.57;3.28;;;15.90;99.90;;;;;;5047271;28;20045;-55
2023/08/13 01:49:51;;;;;;;12.45;3.35;;;15.90;99.90;;;;;;5045132;28;20432;-54
2023/08/13 01:52:17;;;;;;;10.48;3.53;;;15.80;99.90;;;;;;5027976;28;20092;-57
2023/08/13 01:54:42;;;;;;;15.70;3.50;;;15.90;99.90;;;;;;5046182;28;20037;-56
2023/08/13 01:57:08;;;;;;;14.73;3.80;;;15.90;99.90;;;;;;5056809;28;20045;-56
2023/08/13 01:59:34;;;;;;;9.30;3.22;;;15.90;99.90;;;;;;5046048;28;20053;-56
2023/08/13 02:01:59;;;;;;;9.38;3.22;;;15.90;99.90;;;;;;5046130;28;20075;-56
2023/08/13 02:04:25;;;;;;;10.73;3.28;;;15.90;99.90;;;;;;5045792;28;20455;-57
2023/08/13 02:06:50;;;;;;;11.85;3.42;;;15.90;99.90;;;;;;5044770;28;20502;-56
2023/08/13 02:09:16;;;;;;;13.68;3.63;;;15.90;99.90;;;;;;5045464;28;20045;-56
2023/08/13 02:11:41;;;;;;;;;;;15.90;99.90;;;;;;5045377;28;20445;-56
2023/08/13 02:14:08;;;;;;;;;;;15.80;99.90;;;;;;5039045;28;25134;-56
2023/08/13 02:16:34;;;;;;;;;;;15.90;99.90;;;;;;5037207;28;25220;-56
2023/08/13 02:18:59;;;;;;;;;;;16.00;99.90;;;;;;5045543;28;19920;-55
2023/08/13 02:21:25;;;;;;;;;;;15.90;99.90;;;;;;5038463;28;25080;-55
2023/08/13 02:23:50;;;;;;;;;;;16.10;99.90;;;;;;5044641;28;19928;-56
2023/08/13 02:26:16;;;;;;;;;;;15.90;99.90;;;;;;5042682;28;19916;-57
2023/08/13 02:28:45;;;;;;;;;;;15.90;99.90;;;;;;5038175;28;25137;-56
2023/08/13 02:31:11;;;;;;;;;;;16.00;99.90;;;;;;5038270;28;25120;-55
2023/08/13 02:33:36;;;;;;;;;;;16.00;99.90;;;;;;5044007;28;24103;-54
2023/08/13 02:36:02;;;;;;;;;;;16.00;99.90;;;;;;5038671;28;25082;-56
2023/08/13 02:38:28;;;;;;;13.50;4.05;;;16.00;99.90;;;;;;5044544;28;19917;-56
2023/08/13 02:40:53;;;;;;;12.48;3.40;;;16.00;99.90;;;;;;5044639;28;20168;-55
2023/08/13 02:43:19;;;;;;;16.67;3.60;;;15.90;99.90;;;;;;5045088;28;20033;-57
2023/08/13 02:45:44;;;;;;;12.80;3.70;;;16.00;99.90;;;;;;5044226;28;20445;-56
2023/08/13 02:48:11;;;;;;;13.60;3.47;;;16.10;99.90;;;;;;5045428;28;20098;-57
2023/08/13 02:50:36;;;;;;;13.55;3.75;;;16.00;99.90;;;;;;5043942;28;20131;-54
2023/08/13 02:53:02;;;;;;;12.68;3.67;;;15.90;99.90;;;;;;5045531;28;20048;-54
2023/08/13 02:55:28;;;;;;;14.70;3.63;;;15.80;99.90;;;;;;5048112;28;20569;-56
2023/08/13 02:57:53;;;;;;;16.92;3.88;;;15.80;99.90;;;;;;5053170;28;20089;-54
2023/08/13 03:00:19;;;;;;;14.35;3.90;;;15.80;99.90;;;;;;5044934;28;20183;-56
2023/08/13 03:02:45;;;;;;;14.75;4.00;;;15.70;99.90;;;;;;5045205;28;20053;-56
2023/08/13 03:05:10;;;;;;;13.20;3.78;;;15.70;99.90;;;;;;5044274;28;20096;-56
2023/08/13 03:07:36;;;;;;;14.63;3.50;;;15.80;99.90;;;;;;5044936;28;20052;-56
2023/08/13 03:10:03;;;;;;;11.85;3.72;;;15.90;99.90;;;;;;5045260;28;20387;-56
2023/08/13 03:12:29;;;;;;;19.58;4.40;;;15.70;99.90;;;;;;5045154;28;20045;-56
2023/08/13 03:14:54;;;;;;;13.45;3.75;;;15.80;99.90;;;;;;5044682;28;20608;-56
2023/08/13 03:17:20;;;;;;;13.98;3.72;;;15.60;99.90;;;;;;5045173;28;20084;-57
2023/08/13 03:19:46;;;;;;;14.63;3.95;;;15.70;99.90;;;;;;5044057;28;20137;-56
2023/08/13 03:22:12;;;;;;;12.20;3.50;;;15.70;99.90;;;;;;5045207;28;20565;-57
2023/08/13 03:24:38;;;;;;;11.65;3.72;;;15.60;99.90;;;;;;5044542;28;20671;-56
2023/08/13 03:27:04;;;;;;;10.57;3.67;;;15.60;99.90;;;;;;5045101;28;20204;-56
2023/08/13 03:29:29;;;;;;;14.98;3.72;;;15.60;99.90;;;;;;5045274;28;20049;-56
2023/08/13 03:31:55;;;;;;;14.55;3.65;;;15.60;99.90;;;;;;5044637;28;20077;-56
2023/08/13 03:34:20;;;;;;;13.95;3.83;;;15.60;99.90;;;;;;5044216;28;20448;-54
2023/08/13 03:36:46;;;;;;;16.45;4.03;;;15.40;99.90;;;;;;5044854;28;20124;-56
2023/08/13 03:39:12;;;;;;;15.20;4.55;;;15.50;99.90;;;;;;5045106;28;20052;-55
2023/08/13 03:41:37;;;;;;;15.18;3.95;;;15.40;99.90;;;;;;5043844;28;20077;-57
2023/08/13 03:44:03;;;;;;;12.02;4.20;;;15.50;99.90;;;;;;5044983;28;20041;-57
2023/08/13 03:46:29;;;;;;;14.18;4.28;;;15.40;99.90;;;;;;5044511;28;20106;-57
2023/08/13 03:48:55;;;;;;;12.48;3.90;;;15.50;99.90;;;;;;5044442;28;20049;-55
2023/08/13 03:51:20;;;;;;;17.95;4.70;;;15.40;99.90;;;;;;5044420;28;20060;-57
2023/08/13 03:53:46;;;;;;;16.65;4.90;;;15.40;99.90;;;;;;5044354;28;20064;-56
2023/08/13 03:56:12;;;;;;;15.95;4.60;;;15.50;99.90;;;;;;5047820;28;20044;-55
2023/08/13 03:58:38;;;;;;;13.82;4.10;;;15.40;99.90;;;;;;5058757;28;20081;-56
2023/08/13 04:01:08;;;;;;;16.02;5.35;;;15.30;99.90;;;;;;5044917;28;20140;-57
2023/08/13 04:03:34;;;;;;;16.73;4.65;;;15.20;99.90;;;;;;5045340;28;20075;-56
2023/08/13 04:06:00;;;;;;;14.20;4.13;;;15.30;99.90;;;;;;5043227;28;20083;-57
2023/08/13 04:08:26;;;;;;;15.40;4.50;;;15.20;99.90;;;;;;5050964;28;20077;-57
2023/08/13 04:10:52;;;;;;;16.67;4.72;;;15.30;99.90;;;;;;5063737;28;20094;-56
2023/08/13 04:13:19;;;;;;;12.38;4.38;;;15.20;99.90;;;;;;5066970;28;20042;-56
2023/08/13 04:15:44;;;;;;;17.23;4.60;;;15.30;99.90;;;;;;5060714;28;20052;-56
2023/08/13 04:18:10;;;;;;;14.90;3.97;;;15.30;99.90;;;;;;5060829;28;20094;-58
2023/08/13 04:20:36;;;;;;;16.95;4.68;;;15.20;99.90;;;;;;5066793;28;20099;-58
2023/08/13 04:23:02;;;;;;;14.13;4.60;;;15.20;99.90;;;;;;5066561;28;20426;-57
2023/08/13 04:25:28;;;;;;;20.17;5.55;;;15.20;99.90;;;;;;5067315;28;20044;-57
2023/08/13 04:27:53;;;;;;;15.18;4.78;;;15.20;99.90;;;;;;5066927;28;20564;-58
2023/08/13 04:30:19;;;;;;;14.45;4.60;;;15.10;99.90;;;;;;5057356;28;20079;-57
2023/08/13 04:32:53;;;;;;;15.57;4.68;;;15.10;99.90;;;;;;5047722;28;20079;-57
2023/08/13 04:35:18;;;;;;;12.55;4.65;;;15.20;99.90;;;;;;5051630;28;20049;-58
2023/08/13 04:37:44;;;;;;;16.02;4.88;;;15.20;99.90;;;;;;5066209;28;20040;-58
2023/08/13 04:40:10;;;;;;;13.25;4.53;;;15.20;99.90;;;;;;5067428;28;20052;-56
2023/08/13 04:42:36;;;;;;;13.38;4.40;;;15.20;99.90;;;;;;5068166;28;20120;-57
2023/08/13 04:45:02;;;;;;;15.10;4.53;;;15.20;99.90;;;;;;5067678;28;20116;-56
2023/08/13 04:47:28;;;;;;;17.65;5.03;;;15.20;99.90;;;;;;5066619;28;20832;-57
2023/08/13 04:49:53;;;;;;;15.20;4.22;;;15.20;99.90;;;;;;5060573;28;20041;-56
2023/08/13 04:52:19;;;;;;;13.05;4.55;;;15.30;99.90;;;;;;5054689;28;20057;-57
2023/08/13 04:54:46;;;;;;;15.15;4.53;;;15.30;99.90;;;;;;5051934;28;20269;-58
2023/08/13 04:57:12;;;;;;;15.00;4.72;;;15.60;99.90;;;;;;5056615;28;20081;-56
2023/08/13 04:59:37;;;;;;;16.80;4.32;;;15.60;99.90;;;;;;5055204;28;20103;-58
2023/08/13 05:02:03;;;;;;;15.50;4.53;;;15.50;99.90;;;;;;5056777;28;20060;-58
2023/08/13 05:04:29;;;;;;;14.45;4.35;;;15.50;99.90;;;;;;5066077;28;20045;-57
2023/08/13 05:06:54;;;;;;;12.82;4.85;;;15.70;99.90;;;;;;5065959;28;20072;-57
2023/08/13 05:09:20;;;;;;;10.75;4.18;;;15.80;99.90;;;;;;5066522;28;20469;-58
2023/08/13 05:11:45;;;;;;;23.10;5.18;;;16.00;99.90;;;;;;5065790;28;20195;-56
2023/08/13 05:14:11;;;;;;;11.45;4.35;;;16.10;99.90;;;;;;5052137;28;20190;-57
2023/08/13 05:16:37;;;;;;;13.82;4.35;;;16.30;99.90;;;;;;5046553;28;20106;-58
2023/08/13 05:19:03;;;;;;;11.75;4.00;;;16.50;99.90;;;;;;5045974;28;20044;-57
2023/08/13 05:21:29;;;;;;;14.30;4.32;;;16.60;99.90;;;;;;5062896;28;20049;-56
2023/08/13 05:23:54;;;;;;;11.23;4.32;;;16.70;99.90;;;;;;5066439;28;20048;-57
2023/08/13 05:26:20;;;;;;;11.68;4.50;;;16.90;99.90;;;;;;5065816;28;20080;-57
2023/08/13 05:28:46;;;;;;;16.02;4.43;;;17.00;99.90;;;;;;5065462;28;20112;-57
2023/08/13 05:31:11;;;;;;;15.43;4.50;;;16.90;99.90;;;;;;5066343;28;20041;-58
2023/08/13 05:33:37;;;;;;;13.10;4.28;;;16.70;99.90;;;;;;5066325;28;20064;-55
2023/08/13 05:36:03;;;;;;;15.00;4.78;;;16.70;99.90;;;;;;5065092;28;20051;-57
2023/08/13 05:38:31;;;;;;;14.93;4.50;;;16.60;99.90;;;;;;5063667;28;20157;-57
2023/08/13 05:40:56;;;;;;;14.45;4.95;;;16.50;99.90;;;;;;5065497;28;20067;-56
2023/08/13 05:43:22;;;;;;;9.07;4.13;;;16.50;99.90;;;;;;5065524;28;20040;-57
2023/08/13 05:45:48;;;;;;;14.82;4.38;;;16.40;99.90;;;;;;5065297;28;20087;-57
2023/08/13 05:48:13;;;;;;;13.30;4.55;;;16.40;99.90;;;;;;5065591;28;20402;-58
2023/08/13 05:50:39;;;;;;;15.18;4.72;;;16.40;99.90;;;;;;5065004;28;20114;-57
2023/08/13 05:53:05;;;;;;;13.73;4.45;;;16.70;99.90;;;;;;5066088;28;20117;-57
2023/08/13 05:55:30;;;;;;;11.32;4.25;;;17.00;99.90;;;;;;5062339;28;20040;-56
2023/08/13 05:57:56;;;;;;;11.50;3.85;;;17.30;99.90;;;;;;5054546;28;20041;-57
2023/08/13 06:00:22;;;;;;;12.73;3.88;;;17.70;99.90;;;;;;5045412;28;20464;-56
2023/08/13 06:02:48;;;;;;;11.00;4.15;;;18.00;99.90;;;;;;5044707;28;20057;-57
2023/08/13 06:05:13;;;;;;;11.63;4.10;;;18.00;99.90;;;;;;5043278;28;20080;-58
2023/08/13 06:07:39;;;;;;;13.93;4.10;;;18.00;99.90;;;;;;5045470;28;20404;-58
2023/08/13 06:10:05;;;;;;;13.85;4.07;;;18.10;99.90;;;;;;5045238;28;20091;-58
2023/08/13 06:12:32;;;;;;;12.43;4.00;;;18.00;99.90;;;;;;5045272;28;20129;-58
2023/08/13 06:14:58;;;;;;;10.07;4.00;;;17.90;99.90;;;;;;5047042;28;20033;-58
2023/08/13 06:17:24;;;;;;;9.85;4.45;;;17.60;99.90;;;;;;5060257;28;20415;-58
2023/08/13 06:19:50;;;;;;;11.38;4.38;;;17.40;99.90;;;;;;5047128;28;20037;-58
2023/08/13 06:22:16;;;;;;;12.07;4.13;;;17.30;99.90;;;;;;5064792;28;20049;-58
2023/08/13 06:24:41;;;;;;;11.15;4.22;;;17.20;99.90;;;;;;5065318;28;20093;-58
2023/08/13 06:27:07;;;;;;;16.58;4.63;;;17.10;99.90;;;;;;5061074;28;20123;-57
2023/08/13 06:29:33;;;;;;;14.40;4.70;;;17.00;99.90;;;;;;5044730;28;20140;-57
2023/08/13 06:31:59;;;;;;;14.60;4.88;;;16.90;99.90;;;;;;5044789;28;20049;-57
2023/08/13 06:34:24;;;;;;;11.32;4.32;;;16.90;99.90;;;;;;5044081;28;20534;-58
2023/08/13 06:36:51;;;;;;;15.77;5.10;;;16.80;99.90;;;;;;5062883;28;20135;-57
2023/08/13 06:39:18;;;;;;;14.75;8.43;;;17.10;99.90;;;;;;5064235;28;20040;-53
2023/08/13 06:41:43;;;;;;;15.27;9.20;;;17.80;99.90;;;;;;5064016;28;20067;-55
2023/08/13 06:44:19;;;;;;;14.82;4.72;;;18.20;99.90;;;;;;5061283;28;20396;-56
2023/08/13 06:46:48;;;;;;;12.85;4.40;;;18.70;99.90;;;;;;5044645;28;20048;-58
2023/08/13 06:49:14;;;;;;;12.98;4.85;;;18.60;99.90;;;;;;5044290;28;20079;-56
2023/08/13 06:51:40;;;;;;;14.70;4.82;;;18.60;99.90;;;;;;5045222;28;20072;-58
2023/08/13 06:54:06;;;;;;;10.70;4.82;;;18.60;99.90;;;;;;5045105;28;20384;-57
2023/08/13 06:56:32;;;;;;;11.30;4.30;;;18.80;99.90;;;;;;5052169;28;20091;-57
2023/08/13 06:58:58;;;;;;;16.50;4.95;;;19.30;99.90;;;;;;5050406;28;20044;-57
2023/08/13 07:01:24;;;;;;;11.63;3.97;;;19.60;99.90;;;;;;5055654;28;20673;-58
2023/08/13 07:03:49;;;;;;;9.32;4.53;;;19.60;99.90;;;;;;5044013;28;20049;-58
2023/08/13 07:06:15;;;;;;;9.98;3.53;;;19.70;99.90;;;;;;5044407;28;20048;-57
2023/08/13 07:08:41;;;;;;;17.63;4.45;;;19.80;99.90;;;;;;5044493;28;20116;-57
2023/08/13 07:11:06;;;;;;;15.38;4.20;;;20.00;99.90;;;;;;5044020;28;20053;-58
2023/08/13 07:13:32;;;;;;;12.65;4.10;;;20.10;99.90;;;;;;5043013;28;20056;-57
2023/08/13 07:15:57;;;;;;;10.45;4.60;;;19.70;99.90;;;;;;5043568;28;20113;-57
2023/08/13 07:18:23;;;;;;;14.43;4.45;;;19.00;99.90;;;;;;5044391;28;20060;-56
2023/08/13 07:20:49;;;;;;;11.85;4.35;;;19.00;99.90;;;;;;5043128;28;20163;-58
2023/08/13 07:23:14;;;;;;;10.60;4.20;;;19.30;99.90;;;;;;5044675;28;20106;-58
2023/08/13 07:25:40;;;;;;;12.38;4.20;;;19.30;99.90;;;;;;5044709;28;20037;-58
2023/08/13 07:28:08;;;;;;;11.60;3.92;;;19.30;99.90;;;;;;5044228;28;20598;-58
2023/08/13 07:30:34;;;;;;;10.88;4.00;;;19.60;99.90;;;;;;5044656;28;20248;-58
2023/08/13 07:33:00;;;;;;;13.52;3.92;;;19.80;99.90;;;;;;5043844;28;20048;-58
2023/08/13 07:35:26;;;;;;;12.85;4.60;;;20.00;99.90;;;;;;5043477;28;20080;-58
2023/08/13 07:37:52;;;;;;;12.18;3.90;;;20.10;99.90;;;;;;5044672;28;20045;-58
2023/08/13 07:40:18;;;;;;;12.32;4.15;;;20.30;99.90;;;;;;5044920;28;20081;-57
2023/08/13 07:42:44;;;;;;;11.93;3.92;;;20.50;99.90;;;;;;5043514;28;20573;-58
2023/08/13 07:45:11;;;;;;;11.00;3.85;;;20.50;99.90;;;;;;5047835;28;20040;-58
2023/08/13 07:47:36;;;;;;;11.93;3.90;;;20.50;99.90;;;;;;5047907;28;20057;-58
2023/08/13 07:50:04;;;;;;;11.98;4.05;;;20.60;99.90;;;;;;5046369;28;20057;-58
2023/08/13 07:52:34;;;;;;;11.48;4.13;;;20.30;99.90;;;;;;5047692;28;20044;-58
2023/08/13 07:55:00;;;;;;;11.27;3.65;;;20.00;99.90;;;;;;5047711;28;20052;-58
2023/08/13 07:57:26;;;;;;;9.65;3.10;;;20.20;99.90;;;;;;5056744;28;20172;-56
2023/08/13 07:59:52;;;;;;;8.48;3.60;;;20.50;99.90;;;;;;5046407;28;20151;-57
2023/08/13 08:02:17;;;;;;;11.77;3.83;;;20.70;99.90;;;;;;5047775;28;20511;-57
2023/08/13 08:04:45;;;;;;;12.43;3.92;;;20.80;99.90;;;;;;5047612;28;20037;-57
2023/08/13 08:07:10;;;;;;;10.18;3.10;;;20.90;99.90;;;;;;5047590;28;20037;-57
2023/08/13 08:09:36;;;;;;;13.15;3.75;;;21.00;99.90;;;;;;5046818;28;20098;-57
2023/08/13 08:12:02;;;;;;;12.00;3.20;;;21.00;99.90;;;;;;5047746;28;20124;-57
2023/08/13 08:14:28;;;;;;;10.38;3.15;;;21.00;99.90;;;;;;5058164;28;20036;-58
2023/08/13 08:16:57;;;;;;;12.10;3.15;;;21.00;99.90;;;;;;5047973;28;20033;-56
2023/08/13 08:19:23;;;;;;;10.63;2.90;;;21.10;99.90;;;;;;5063716;28;20468;-58
2023/08/13 08:21:49;;;;;;;7.57;2.70;;;21.10;99.90;;;;;;5067500;28;20090;-57
2023/08/13 08:24:14;;;;;;;10.82;3.20;;;21.10;99.90;;;;;;5068179;28;20216;-56
2023/08/13 08:26:40;;;;;;;10.77;2.78;;;21.10;99.90;;;;;;5067694;28;20048;-57
2023/08/13 08:29:05;;;;;;;7.43;2.58;;;21.10;99.90;;;;;;5059983;28;20559;-56
2023/08/13 08:31:31;;;;;;;9.43;2.63;;;21.10;99.90;;;;;;5047684;28;20051;-57
2023/08/13 08:33:57;;;;;;;7.57;2.72;;;21.10;99.90;;;;;;5049907;28;20093;-57
2023/08/13 08:36:22;;;;;;;8.07;2.53;;;21.20;99.90;;;;;;5067452;28;20139;-57
2023/08/13 08:38:48;;;;;;;13.02;2.80;;;21.30;99.90;;;;;;5066929;28;20094;-56
2023/08/13 08:41:15;;;;;;;12.93;3.13;;;21.20;99.90;;;;;;5068219;28;20045;-57
2023/08/13 08:43:42;;;;;;;8.70;2.50;;;21.10;99.90;;;;;;5067787;28;20036;-57
2023/08/13 08:46:10;;;;;;;8.98;2.80;;;21.00;99.90;;;;;;5067631;28;20102;-57
2023/08/13 08:48:37;;;;;;;11.00;2.80;;;21.00;99.90;;;;;;5067000;28;20047;-57
2023/08/13 08:51:03;;;;;;;8.70;2.40;;;21.00;99.90;;;;;;5067760;28;20065;-55
2023/08/13 08:53:30;;;;;;;7.47;2.72;;;21.20;99.90;;;;;;5058166;28;20050;-57
2023/08/13 08:55:56;;;;;;;7.93;2.42;;;21.50;99.90;;;;;;5062482;28;20044;-57
2023/08/13 08:58:22;;;;;;;6.90;2.40;;;21.60;99.90;;;;;;5056910;28;20447;-55
2023/08/13 09:00:48;;;;;;;6.50;2.58;;;21.50;99.90;;;;;;5054216;28;20049;-56
2023/08/13 09:03:13;;;;;;;7.47;2.28;;;21.40;99.90;;;;;;5064865;28;20055;-58
2023/08/13 09:05:39;;;;;;;8.15;2.75;;;21.10;99.90;;;;;;5064987;28;20183;-58
2023/08/13 09:08:13;;;;;;;7.10;2.75;;;21.10;99.90;;;;;;5066471;28;20040;-55
2023/08/13 09:10:42;;;;;;;7.32;2.60;;;21.20;99.90;;;;;;5066297;28;20039;-57
2023/08/13 09:13:09;;;;;;;8.02;2.38;;;21.30;99.90;;;;;;5063594;28;20115;-56
2023/08/13 09:15:41;;;;;;;8.32;2.67;;;21.40;99.90;;;;;;5067153;28;20508;-57
2023/08/13 09:18:07;;;;;;;5.88;1.90;;;21.60;99.90;;;;;;5065979;28;20044;-57
2023/08/13 09:20:32;;;;;;;8.25;2.03;;;21.60;99.90;;;;;;5065441;28;20040;-58
2023/08/13 09:22:59;;;;;;;5.88;1.83;;;21.60;99.90;;;;;;5065357;28;20048;-56
2023/08/13 09:25:25;;;;;;;9.02;2.25;;;21.60;99.90;;;;;;5065359;28;20606;-58
2023/08/13 09:27:51;;;;;;;9.82;2.17;;;21.70;99.90;;;;;;5065582;28;20040;-58
2023/08/13 09:30:27;;;;;;;6.82;2.10;;;21.80;99.90;;;;;;5065557;28;20063;-58
2023/08/13 09:32:55;;;;;;;7.28;2.35;;;21.70;99.90;;;;;;5064517;28;20059;-57
2023/08/13 09:35:20;;;;;;;5.47;1.88;;;21.80;99.90;;;;;;5064641;28;20055;-57
2023/08/13 09:37:46;;;;;;;9.32;2.05;;;22.00;99.90;;;;;;5066074;28;20036;-57
2023/08/13 09:40:12;;;;;;;7.45;2.00;;;22.20;99.90;;;;;;4159478;28;10000905;-56
2023/08/13 09:42:38;;;;;;;7.65;2.22;;;22.50;99.90;;;;;;4130468;28;10000959;-58
2023/08/13 09:45:08;;;;;;;7.85;2.05;;;22.50;99.90;;;;;;5014339;28;20132;-57
2023/08/13 09:47:36;;;;;;;7.72;2.30;;;22.60;99.90;;;;;;5005694;28;20128;-57
2023/08/13 09:50:03;;;;;;;6.38;1.83;;;22.60;99.90;;;;;;5024447;28;20058;-58
2023/08/13 09:52:31;;;;;;;8.25;2.00;;;22.60;99.90;;;;;;5026371;28;20037;-58
2023/08/13 09:55:08;;;;;;;7.20;2.08;;;22.50;99.90;;;;;;5025785;28;20133;-58
2023/08/13 09:57:36;;;;;;;6.65;2.15;;;22.20;99.90;;;;;;5025319;28;20045;-55
2023/08/13 10:00:03;;;;;;;7.45;1.90;;;22.00;99.90;;;;;;5026025;28;20048;-58
2023/08/13 10:02:29;;;;;;;7.05;2.00;;;22.00;99.90;;;;;;5041309;28;20436;-58
2023/08/13 10:04:56;;;;;;;7.70;2.05;;;22.00;99.90;;;;;;5017143;28;20480;-59
2023/08/13 10:07:23;;;;;;;6.07;1.90;;;22.00;99.90;;;;;;5005450;28;20042;-56
2023/08/13 10:09:50;;;;;;;5.57;2.13;;;22.10;99.90;;;;;;5020647;28;20049;-58
2023/08/13 10:12:17;;;;;;;7.78;2.10;;;22.00;99.90;;;;;;5006293;28;20125;-55
2023/08/13 10:14:43;;;;;;;7.68;1.98;;;21.90;99.90;;;;;;5005538;28;20050;-58
2023/08/13 10:17:08;;;;;;;4.95;1.73;;;21.80;99.90;;;;;;5005660;28;20401;-57
2023/08/13 10:19:39;;;;;;;7.68;2.22;;;22.00;99.90;;;;;;5003915;28;20129;-56
2023/08/13 10:22:08;;;;;;;8.88;2.15;;;22.20;99.90;;;;;;5004367;28;20132;-58
2023/08/13 10:24:34;;;;;;;5.85;2.05;;;22.50;99.90;;;;;;5004511;28;20042;-57
2023/08/13 10:27:00;;;;;;;6.50;2.00;;;22.60;99.90;;;;;;5005515;28;20042;-58
2023/08/13 10:29:36;;;;;;;7.30;2.00;;;22.80;99.90;;;;;;5005179;28;20040;-58
2023/08/13 10:32:11;;;;;;;6.53;1.90;;;22.90;99.90;;;;;;5005445;28;20107;-57
2023/08/13 10:34:38;;;;;;;5.68;1.60;;;22.90;99.90;;;;;;5006557;28;20077;-57
2023/08/13 10:37:13;;;;;;;7.75;2.20;;;22.70;99.90;;;;;;5015273;28;20069;-57
2023/08/13 10:39:42;;;;;;;7.47;1.95;;;22.60;99.90;;;;;;5023099;28;20037;-57
2023/08/13 10:42:26;;;;;;;6.38;2.10;;;22.70;99.90;;;;;;5023209;28;20045;-58
2023/08/13 10:45:05;;;;;;;5.03;1.95;;;22.80;99.90;;;;;;5024549;28;20046;-59
2023/08/13 10:47:47;;;;;;;7.25;2.17;;;23.00;99.90;;;;;;5023201;28;21345;-56
2023/08/13 10:50:28;;;;;;;8.55;1.92;;;23.00;99.90;;;;;;5022224;28;20057;-58
2023/08/13 10:53:09;;;;;;;6.15;1.75;;;22.80;99.90;;;;;;5023720;28;20578;-58
2023/08/13 10:55:38;;;;;;;4.28;1.50;;;22.70;99.90;;;;;;5020732;28;20136;-57
2023/08/13 10:58:04;;;;;;;5.93;1.70;;;22.50;99.90;;;;;;5022219;28;20094;-58
2023/08/13 11:00:30;;;;;;;4.78;1.60;;;22.50;99.90;;;;;;5014930;28;20057;-58
2023/08/13 11:03:15;;;;;;;3.70;1.30;;;22.50;99.90;;;;;;5045403;28;20075;-57
2023/08/13 11:05:42;;;;;;;3.50;1.52;;;22.70;99.90;;;;;;5021977;28;20045;-58
2023/08/13 11:08:08;;;;;;;6.07;1.70;;;22.70;99.90;;;;;;5024717;28;20056;-58
2023/08/13 11:10:35;;;;;;;9.55;2.17;;;22.70;99.90;;;;;;5024972;28;20045;-57
2023/08/13 11:13:04;;;;;;;4.32;1.35;;;22.70;99.90;;;;;;5024576;28;20038;-58
2023/08/13 11:15:30;;;;;;;4.75;1.45;;;22.90;99.90;;;;;;5023473;28;20041;-57
2023/08/13 11:17:56;;;;;;;4.45;1.50;;;23.20;99.90;;;;;;5026085;28;20072;-58
2023/08/13 11:20:23;;;;;;;4.63;1.23;;;23.20;99.90;;;;;;5029205;28;20034;-57
2023/08/13 11:22:49;;;;;;;3.13;1.23;;;23.20;99.90;;;;;;5029384;28;20053;-58
2023/08/13 11:25:15;;;;;;;6.55;1.40;;;23.10;99.90;;;;;;5029422;28;20061;-58
2023/08/13 11:27:41;;;;;;;3.88;1.27;;;23.00;99.90;;;;;;5025549;28;20381;-57
2023/08/13 11:30:09;;;;;;;5.28;1.65;;;22.90;99.90;;;;;;5019904;28;20076;-57
2023/08/13 11:32:36;;;;;;;5.10;1.50;;;22.80;99.90;;;;;;5009146;28;20053;-59
2023/08/13 11:35:05;;;;;;;6.05;1.20;;;22.80;99.90;;;;;;5021800;28;20038;-58
2023/08/13 11:37:32;;;;;;;4.35;1.58;;;22.80;99.90;;;;;;5018334;28;20456;-58
2023/08/13 11:39:57;;;;;;;4.50;1.15;;;22.80;99.90;;;;;;5027213;28;20112;-58
2023/08/13 11:42:23;;;;;;;4.40;1.45;;;22.90;99.90;;;;;;5029077;28;20195;-58
2023/08/13 11:44:49;;;;;;;4.53;1.40;;;22.90;99.90;;;;;;5027574;28;20041;-61
2023/08/13 11:47:26;;;;;;;3.92;1.25;;;22.80;99.90;;;;;;5028383;28;20037;-58
2023/08/13 11:49:54;;;;;;;5.10;1.70;;;22.80;99.90;;;;;;5027839;28;20041;-57
2023/08/13 11:52:21;;;;;;;4.88;1.65;;;22.80;99.90;;;;;;5022491;28;20068;-56
2023/08/13 11:54:47;;;;;;;5.60;1.52;;;22.80;99.90;;;;;;5013644;28;20095;-56
2023/08/13 11:57:14;;;;;;;3.45;1.10;;;22.90;99.90;;;;;;5026823;28;20054;-58
2023/08/13 11:59:40;;;;;;;3.55;1.23;;;23.10;99.90;;;;;;5016915;28;20045;-58
2023/08/13 12:02:05;;;;;;;8.82;1.40;;;23.00;99.90;;;;;;5006875;28;20409;-58
2023/08/13 12:04:32;;;;;;;4.55;1.38;;;23.00;99.90;;;;;;5005445;28;20058;-57
2023/08/13 12:06:58;;;;;;;5.10;1.48;;;22.90;99.90;;;;;;5007519;28;20060;-57
2023/08/13 12:09:24;;;;;;;5.15;1.63;;;22.90;99.90;;;;;;5007973;28;20053;-57
2023/08/13 12:11:52;;;;;;;2.33;1.10;;;22.90;99.90;;;;;;5009046;28;20057;-57
2023/08/13 12:14:18;;;;;;;4.10;1.00;;;22.90;99.90;;;;;;5008947;28;20042;-58
2023/08/13 12:16:44;;;;;;;4.35;1.42;;;22.90;99.90;;;;;;5008560;28;20112;-58
2023/08/13 12:19:09;;;;;;;6.03;1.40;;;22.90;99.90;;;;;;5015867;28;20464;-57
2023/08/13 12:21:36;;;;;;;4.15;1.13;;;22.90;99.90;;;;;;5028718;28;20504;-58
2023/08/13 12:24:05;;;;;;;3.97;1.13;;;22.80;99.90;;;;;;5021696;28;20068;-57
2023/08/13 12:26:32;;;;;;;3.40;0.95;;;22.70;99.90;;;;;;5028627;28;20053;-58
2023/08/13 12:28:58;;;;;;;5.43;1.30;;;22.60;99.90;;;;;;5025880;28;20060;-58
2023/08/13 12:31:25;;;;;;;4.03;0.90;;;22.60;99.90;;;;;;5028085;28;20057;-58
2023/08/13 12:33:52;;;;;;;4.28;1.10;;;22.40;99.90;;;;;;5026701;28;20084;-58
2023/08/13 12:36:18;;;;;;;4.78;0.88;;;22.50;99.90;;;;;;5027553;28;20480;-58
2023/08/13 12:38:44;;;;;;;4.05;1.13;;;22.50;99.90;;;;;;5027665;28;20132;-58
2023/08/13 12:41:10;;;;;;;3.00;1.02;;;22.50;99.90;;;;;;5025429;28;20125;-56